Main page
METAR-TAF:

METAR-TAF

Airports :

Miller Field

Valentine, Nebraska, United States

latitude: 42-51-31N, longitude: 100-33-05W, elevation: 2588 ft

Current weather observation

The report was made 32 minutes ago, at 14:52 UTC
Wind 15 mph from the North
Temperature 70°F
Humidity 53%
Pressure 30.20 in. Hg
Visibility: 10 miles
Clear sky

METAR: KVTN 281452Z AUTO 35013KT 10SM CLR 21/11 A3020 RMK AO2 SLP212 T02110111 51011

Time: 10:24 (15:24 UTC)

Forecast

The report was made 4 hours and 4 minutes ago, at 11:20 UTC
Forecast valid from 28 at 12 UTC to 29 at 12 UTC
Wind 8 mph from the North/Northwest
Visibility: 6 miles
Broken clouds at a height of 5000 ft
From 28 at 1400 UTC
Wind 14 mph from the North with gusts up to 23 mph
Visibility: 6 miles
Broken clouds at a height of 12000 ft
From 29 at 0100 UTC
Wind 3 mph from variable directions
Visibility: 6 miles
Few clouds at a height of 25000 ft

TAF: KVTN 281120Z 2812/2912 34007KT P6SM BKN050 FM281400 36012G20KT P6SM BKN120 FM290100 VRB03KT P6SM FEW250

Weather observations and forecasts of more than 4000 airports (METAR and TAF reports).

The available stations are represented by yellow and red dots on the map.

Hover mouse over dot to see the name of the station.

Then click to see weather observations and forecasts.

To change the map : click on the green buttons with a black cross to zoom in, on the green button with a dash to zoom out, or on the green arrows for adjacent maps.


METAR-TAF: